Řízení letového provozu České republiky
Letiste: LKLN Aktualizace: 19.02.2018 11:06:03  UTC
 METAR LKLN 19.02. 11:00 ...
METAR LKLN 191100Z AUTO 08005KT 330V130 CAVOK 01/M05 Q1020=